sensor_id;sensor_type;location;lat;lon;timestamp;pressure;altitude;pressure_sealevel;temperature;humidity
17505;BME280;8870;50.950;11.762;2023-04-04T00:00:32;99510.75;;;1.05;100.00
17505;BME280;8870;50.950;11.762;2023-04-04T00:05:54;99508.00;;;1.07;100.00
17505;BME280;8870;50.950;11.762;2023-04-04T00:11:25;99501.13;;;1.03;100.00
17505;BME280;8870;50.950;11.762;2023-04-04T00:16:43;99499.41;;;1.02;100.00
17505;BME280;8870;50.950;11.762;2023-04-04T00:22:16;99503.72;;;1.04;100.00
17505;BME280;8870;50.950;11.762;2023-04-04T00:27:42;99496.69;;;1.03;100.00
17505;BME280;8870;50.950;11.762;2023-04-04T00:33:14;99497.69;;;1.01;100.00
17505;BME280;8870;50.950;11.762;2023-04-04T00:38:35;99490.69;;;1.00;100.00
17505;BME280;8870;50.950;11.762;2023-04-04T00:44:07;99481.94;;;0.98;100.00
17505;BME280;8870;50.950;11.762;2023-04-04T00:49:25;99487.22;;;0.98;100.00
17505;BME280;8870;50.950;11.762;2023-04-04T00:55:01;99487.38;;;0.95;100.00
17505;BME280;8870;50.950;11.762;2023-04-04T01:00:19;99473.78;;;1.01;100.00
17505;BME280;8870;50.950;11.762;2023-04-04T01:05:51;99472.09;;;1.00;100.00
17505;BME280;8870;50.950;11.762;2023-04-04T01:11:12;99476.63;;;0.98;100.00
17505;BME280;8870;50.950;11.762;2023-04-04T01:16:44;99469.59;;;0.97;100.00
17505;BME280;8870;50.950;11.762;2023-04-04T01:22:04;99473.19;;;0.96;100.00
17505;BME280;8870;50.950;11.762;2023-04-04T01:27:39;99460.59;;;0.82;100.00
17505;BME280;8870;50.950;11.762;2023-04-04T01:33:17;99463.88;;;0.68;100.00
17505;BME280;8870;50.950;11.762;2023-04-04T01:38:49;99462.38;;;0.62;100.00
17505;BME280;8870;50.950;11.762;2023-04-04T01:44:26;99464.63;;;0.52;100.00
17505;BME280;8870;50.950;11.762;2023-04-04T01:49:44;99459.31;;;0.52;100.00
17505;BME280;8870;50.950;11.762;2023-04-04T01:55:17;99462.16;;;0.48;100.00
17505;BME280;8870;50.950;11.762;2023-04-04T02:00:41;99455.34;;;0.42;100.00
17505;BME280;8870;50.950;11.762;2023-04-04T02:06:13;99458.00;;;0.42;100.00
17505;BME280;8870;50.950;11.762;2023-04-04T02:11:32;99454.72;;;0.37;100.00
17505;BME280;8870;50.950;11.762;2023-04-04T02:17:07;99455.78;;;0.33;100.00
17505;BME280;8870;50.950;11.762;2023-04-04T02:22:25;99451.28;;;0.35;100.00
17505;BME280;8870;50.950;11.762;2023-04-04T02:27:57;99454.97;;;0.30;100.00
17505;BME280;8870;50.950;11.762;2023-04-04T02:33:31;99447.97;;;0.29;100.00
17505;BME280;8870;50.950;11.762;2023-04-04T02:38:52;99451.00;;;0.22;100.00
17505;BME280;8870;50.950;11.762;2023-04-04T02:44:25;99439.16;;;0.10;100.00
17505;BME280;8870;50.950;11.762;2023-04-04T02:49:50;99433.97;;;0.07;100.00
17505;BME280;8870;50.950;11.762;2023-04-04T02:55:22;99438.63;;;0.02;100.00
17505;BME280;8870;50.950;11.762;2023-04-04T03:00:40;99433.59;;;-0.05;100.00
17505;BME280;8870;50.950;11.762;2023-04-04T03:06:19;99428.59;;;-0.11;100.00
17505;BME280;8870;50.950;11.762;2023-04-04T03:11:37;99421.69;;;-0.15;100.00
17505;BME280;8870;50.950;11.762;2023-04-04T03:17:08;99416.69;;;-0.21;100.00
17505;BME280;8870;50.950;11.762;2023-04-04T03:22:32;99407.88;;;-0.22;100.00
17505;BME280;8870;50.950;11.762;2023-04-04T03:28:09;99409.59;;;-0.21;100.00
17505;BME280;8870;50.950;11.762;2023-04-04T03:33:41;99409.81;;;-0.25;100.00
17505;BME280;8870;50.950;11.762;2023-04-04T03:39:03;99410.69;;;-0.25;100.00
17505;BME280;8870;50.950;11.762;2023-04-04T03:44:34;99400.28;;;-0.29;100.00
17505;BME280;8870;50.950;11.762;2023-04-04T03:50:02;99402.94;;;-0.29;100.00
17505;BME280;8870;50.950;11.762;2023-04-04T03:55:39;99402.00;;;-0.28;100.00
17505;BME280;8870;50.950;11.762;2023-04-04T04:00:59;99397.66;;;-0.29;100.00
17505;BME280;8870;50.950;11.762;2023-04-04T04:06:30;99390.81;;;-0.35;100.00
17505;BME280;8870;50.950;11.762;2023-04-04T04:11:51;99392.53;;;-0.34;100.00
17505;BME280;8870;50.950;11.762;2023-04-04T04:17:22;99401.47;;;-0.37;100.00
17505;BME280;8870;50.950;11.762;2023-04-04T04:22:44;99400.69;;;-0.39;100.00
17505;BME280;8870;50.950;11.762;2023-04-04T04:28:19;99399.88;;;-0.41;100.00
17505;BME280;8870;50.950;11.762;2023-04-04T04:33:55;99401.88;;;-0.46;100.00
17505;BME280;8870;50.950;11.762;2023-04-04T04:39:15;99403.47;;;-0.42;100.00
17505;BME280;8870;50.950;11.762;2023-04-04T04:45:21;99394.72;;;-0.23;100.00
17505;BME280;8870;50.950;11.762;2023-04-04T04:50:43;99401.75;;;-0.43;100.00
17505;BME280;8870;50.950;11.762;2023-04-04T04:56:24;99404.63;;;-0.48;100.00
17505;BME280;8870;50.950;11.762;2023-04-04T05:01:48;99402.75;;;-0.45;100.00
17505;BME280;8870;50.950;11.762;2023-04-04T05:07:23;99417.66;;;-0.43;100.00
17505;BME280;8870;50.950;11.762;2023-04-04T05:12:44;99404.75;;;-0.51;100.00
17505;BME280;8870;50.950;11.762;2023-04-04T05:18:24;99423.16;;;-0.48;100.00
17505;BME280;8870;50.950;11.762;2023-04-04T05:23:45;99415.00;;;-0.43;100.00
17505;BME280;8870;50.950;11.762;2023-04-04T05:29:18;99425.44;;;-0.40;100.00
17505;BME280;8870;50.950;11.762;2023-04-04T05:34:40;99432.41;;;-0.37;100.00
17505;BME280;8870;50.950;11.762;2023-04-04T05:40:14;99434.84;;;-0.33;100.00
17505;BME280;8870;50.950;11.762;2023-04-04T05:45:40;99437.28;;;-0.28;100.00
17505;BME280;8870;50.950;11.762;2023-04-04T05:51:23;99437.09;;;-0.23;100.00
17505;BME280;8870;50.950;11.762;2023-04-04T05:56:45;99432.47;;;-0.18;100.00
17505;BME280;8870;50.950;11.762;2023-04-04T06:02:23;99439.59;;;-0.20;100.00
17505;BME280;8870;50.950;11.762;2023-04-04T06:08:00;99440.13;;;-0.12;100.00
17505;BME280;8870;50.950;11.762;2023-04-04T06:13:19;99449.06;;;-0.14;100.00
17505;BME280;8870;50.950;11.762;2023-04-04T06:18:55;99442.34;;;-0.03;100.00
17505;BME280;8870;50.950;11.762;2023-04-04T06:24:16;99450.16;;;0.01;100.00
17505;BME280;8870;50.950;11.762;2023-04-04T06:29:52;99447.22;;;0.07;100.00
17505;BME280;8870;50.950;11.762;2023-04-04T06:35:11;99459.28;;;0.14;100.00
17505;BME280;8870;50.950;11.762;2023-04-04T06:40:45;99465.22;;;0.19;100.00
17505;BME280;8870;50.950;11.762;2023-04-04T06:46:03;99457.81;;;0.27;100.00
17505;BME280;8870;50.950;11.762;2023-04-04T06:51:35;99455.72;;;0.34;100.00
17505;BME280;8870;50.950;11.762;2023-04-04T06:56:56;99448.41;;;0.39;100.00
17505;BME280;8870;50.950;11.762;2023-04-04T07:02:27;99449.78;;;0.48;100.00
17505;BME280;8870;50.950;11.762;2023-04-04T07:07:45;99446.53;;;0.60;100.00
17505;BME280;8870;50.950;11.762;2023-04-04T07:13:20;99451.31;;;0.71;100.00
17505;BME280;8870;50.950;11.762;2023-04-04T07:18:48;99456.13;;;0.82;100.00
17505;BME280;8870;50.950;11.762;2023-04-04T07:24:24;99450.81;;;0.82;100.00
17505;BME280;8870;50.950;11.762;2023-04-04T07:29:45;99453.53;;;1.00;100.00
17505;BME280;8870;50.950;11.762;2023-04-04T07:35:17;99460.38;;;1.04;100.00
17505;BME280;8870;50.950;11.762;2023-04-04T07:40:37;99451.94;;;0.96;100.00
17505;BME280;8870;50.950;11.762;2023-04-04T07:46:11;99452.75;;;1.15;100.00
17505;BME280;8870;50.950;11.762;2023-04-04T07:51:33;99449.94;;;1.36;100.00
17505;BME280;8870;50.950;11.762;2023-04-04T08:02:35;99450.22;;;1.49;100.00
17505;BME280;8870;50.950;11.762;2023-04-04T08:08:06;99447.91;;;1.76;100.00
17505;BME280;8870;50.950;11.762;2023-04-04T08:13:24;99441.22;;;1.69;100.00
17505;BME280;8870;50.950;11.762;2023-04-04T08:18:58;99434.94;;;1.88;100.00
17505;BME280;8870;50.950;11.762;2023-04-04T08:24:18;99439.59;;;2.00;100.00
17505;BME280;8870;50.950;11.762;2023-04-04T08:29:49;99434.00;;;2.22;100.00
17505;BME280;8870;50.950;11.762;2023-04-04T08:35:16;99442.78;;;2.07;100.00
17505;BME280;8870;50.950;11.762;2023-04-04T08:40:51;99432.44;;;2.18;100.00
17505;BME280;8870;50.950;11.762;2023-04-04T08:46:18;99424.97;;;2.25;100.00
17505;BME280;8870;50.950;11.762;2023-04-04T08:51:56;99432.81;;;2.60;100.00
17505;BME280;8870;50.950;11.762;2023-04-04T08:57:15;99432.22;;;2.87;100.00
17505;BME280;8870;50.950;11.762;2023-04-04T09:02:54;99433.66;;;2.76;100.00
17505;BME280;8870;50.950;11.762;2023-04-04T09:08:18;99430.81;;;3.12;100.00
17505;BME280;8870;50.950;11.762;2023-04-04T09:13:51;99439.00;;;2.92;100.00
17505;BME280;8870;50.950;11.762;2023-04-04T09:19:11;99438.91;;;2.94;100.00
17505;BME280;8870;50.950;11.762;2023-04-04T09:24:45;99430.56;;;2.68;100.00
17505;BME280;8870;50.950;11.762;2023-04-04T09:30:07;99435.63;;;2.89;100.00
17505;BME280;8870;50.950;11.762;2023-04-04T09:35:43;99429.50;;;3.19;100.00
17505;BME280;8870;50.950;11.762;2023-04-04T09:41:05;99437.22;;;3.23;100.00
17505;BME280;8870;50.950;11.762;2023-04-04T09:46:36;99438.22;;;3.37;100.00
17505;BME280;8870;50.950;11.762;2023-04-04T09:51:55;99427.41;;;3.24;100.00
17505;BME280;8870;50.950;11.762;2023-04-04T09:57:32;99437.78;;;2.98;100.00
17505;BME280;8870;50.950;11.762;2023-04-04T10:02:51;99441.50;;;3.26;100.00
17505;BME280;8870;50.950;11.762;2023-04-04T10:08:22;99435.59;;;3.21;100.00
17505;BME280;8870;50.950;11.762;2023-04-04T10:13:44;99431.84;;;3.39;100.00
17505;BME280;8870;50.950;11.762;2023-04-04T10:19:15;99430.72;;;3.44;97.98
17505;BME280;8870;50.950;11.762;2023-04-04T10:24:34;99425.25;;;3.76;100.00
17505;BME280;8870;50.950;11.762;2023-04-04T10:30:09;99420.53;;;3.81;91.43
17505;BME280;8870;50.950;11.762;2023-04-04T10:35:28;99415.16;;;3.95;100.00
17505;BME280;8870;50.950;11.762;2023-04-04T10:41:01;99398.72;;;3.74;100.00
17505;BME280;8870;50.950;11.762;2023-04-04T10:46:24;99407.41;;;3.47;99.07
17505;BME280;8870;50.950;11.762;2023-04-04T10:51:56;99405.31;;;3.38;100.00
17505;BME280;8870;50.950;11.762;2023-04-04T10:57:16;99405.88;;;3.43;100.00
17505;BME280;8870;50.950;11.762;2023-04-04T11:02:53;99397.97;;;3.42;100.00
17505;BME280;8870;50.950;11.762;2023-04-04T11:08:15;99393.09;;;3.34;100.00
17505;BME280;8870;50.950;11.762;2023-04-04T11:13:58;99386.00;;;3.34;100.00
17505;BME280;8870;50.950;11.762;2023-04-04T11:19:21;99387.88;;;3.32;100.00
17505;BME280;8870;50.950;11.762;2023-04-04T11:24:58;99386.84;;;3.35;100.00
17505;BME280;8870;50.950;11.762;2023-04-04T11:30:16;99396.44;;;3.37;100.00
17505;BME280;8870;50.950;11.762;2023-04-04T11:35:52;99378.78;;;3.65;100.00
17505;BME280;8870;50.950;11.762;2023-04-04T11:41:15;99387.38;;;3.85;100.00
17505;BME280;8870;50.950;11.762;2023-04-04T11:46:49;99375.19;;;4.10;100.00
17505;BME280;8870;50.950;11.762;2023-04-04T11:52:15;99360.94;;;4.38;100.00
17505;BME280;8870;50.950;11.762;2023-04-04T11:57:47;99360.09;;;4.38;89.36
17505;BME280;8870;50.950;11.762;2023-04-04T12:03:07;99347.88;;;4.48;93.85
17505;BME280;8870;50.950;11.762;2023-04-04T12:08:43;99342.97;;;4.82;87.29
17505;BME280;8870;50.950;11.762;2023-04-04T12:14:01;99346.47;;;4.70;76.85
17505;BME280;8870;50.950;11.762;2023-04-04T12:19:35;99340.97;;;4.58;74.40
17505;BME280;8870;50.950;11.762;2023-04-04T12:25:05;99339.88;;;4.48;68.73
17505;BME280;8870;50.950;11.762;2023-04-04T12:30:36;99332.63;;;4.90;81.83
17505;BME280;8870;50.950;11.762;2023-04-04T12:35:54;99325.84;;;5.12;80.17
17505;BME280;8870;50.950;11.762;2023-04-04T12:41:30;99318.94;;;5.22;75.53
17505;BME280;8870;50.950;11.762;2023-04-04T12:46:50;99324.53;;;5.45;73.17
17505;BME280;8870;50.950;11.762;2023-04-04T12:52:26;99324.16;;;5.37;71.26
17505;BME280;8870;50.950;11.762;2023-04-04T12:57:49;99325.41;;;4.65;67.39
17505;BME280;8870;50.950;11.762;2023-04-04T13:03:23;99311.50;;;4.87;80.01
17505;BME280;8870;50.950;11.762;2023-04-04T13:08:48;99299.56;;;5.19;78.65
17505;BME280;8870;50.950;11.762;2023-04-04T13:14:22;99299.59;;;5.45;71.22
17505;BME280;8870;50.950;11.762;2023-04-04T13:19:40;99294.34;;;5.30;78.42
17505;BME280;8870;50.950;11.762;2023-04-04T13:25:12;99293.28;;;5.20;73.04
17505;BME280;8870;50.950;11.762;2023-04-04T13:30:33;99290.59;;;5.07;71.09
17505;BME280;8870;50.950;11.762;2023-04-04T13:36:09;99279.19;;;5.31;75.06
17505;BME280;8870;50.950;11.762;2023-04-04T13:41:27;99271.81;;;6.10;73.51
17505;BME280;8870;50.950;11.762;2023-04-04T13:47:01;99272.53;;;5.49;61.11
17505;BME280;8870;50.950;11.762;2023-04-04T13:52:19;99262.19;;;5.95;66.24
17505;BME280;8870;50.950;11.762;2023-04-04T13:57:51;99261.22;;;5.07;65.19
17505;BME280;8870;50.950;11.762;2023-04-04T14:03:12;99261.16;;;4.81;69.22
17505;BME280;8870;50.950;11.762;2023-04-04T14:08:43;99260.09;;;4.71;68.86
17505;BME280;8870;50.950;11.762;2023-04-04T14:14:02;99261.47;;;4.36;69.04
17505;BME280;8870;50.950;11.762;2023-04-04T14:19:37;99255.81;;;4.68;67.67
17505;BME280;8870;50.950;11.762;2023-04-04T14:24:55;99254.16;;;5.19;70.72
17505;BME280;8870;50.950;11.762;2023-04-04T14:30:26;99252.56;;;5.42;64.00
17505;BME280;8870;50.950;11.762;2023-04-04T14:35:48;99258.28;;;6.49;64.15
17505;BME280;8870;50.950;11.762;2023-04-04T14:41:19;99246.22;;;6.19;60.16
17505;BME280;8870;50.950;11.762;2023-04-04T14:46:37;99242.94;;;6.15;66.20
17505;BME280;8870;50.950;11.762;2023-04-04T14:52:12;99236.00;;;6.00;61.64
17505;BME280;8870;50.950;11.762;2023-04-04T14:57:30;99227.06;;;6.61;63.67
17505;BME280;8870;50.950;11.762;2023-04-04T15:03:16;99219.06;;;6.37;61.75
17505;BME280;8870;50.950;11.762;2023-04-04T15:08:39;99216.97;;;5.29;62.18
17505;BME280;8870;50.950;11.762;2023-04-04T15:14:13;99213.78;;;5.11;61.66
17505;BME280;8870;50.950;11.762;2023-04-04T15:19:32;99212.25;;;5.06;66.26
17505;BME280;8870;50.950;11.762;2023-04-04T15:25:08;99208.41;;;5.23;66.99
17505;BME280;8870;50.950;11.762;2023-04-04T15:30:27;99204.38;;;5.31;67.05
17505;BME280;8870;50.950;11.762;2023-04-04T15:35:58;99209.38;;;5.85;64.26
17505;BME280;8870;50.950;11.762;2023-04-04T15:41:19;99203.69;;;6.27;64.25
17505;BME280;8870;50.950;11.762;2023-04-04T15:46:50;99205.34;;;6.88;62.25
17505;BME280;8870;50.950;11.762;2023-04-04T15:52:09;99201.97;;;6.98;60.82
17505;BME280;8870;50.950;11.762;2023-04-04T15:57:42;99208.34;;;6.61;58.84
17505;BME280;8870;50.950;11.762;2023-04-04T16:03:01;99197.88;;;6.34;60.16
17505;BME280;8870;50.950;11.762;2023-04-04T16:08:32;99198.84;;;6.08;57.66
17505;BME280;8870;50.950;11.762;2023-04-04T16:13:53;99194.41;;;5.83;62.83
17505;BME280;8870;50.950;11.762;2023-04-04T16:19:26;99198.56;;;5.50;59.36
17505;BME280;8870;50.950;11.762;2023-04-04T16:24:44;99183.00;;;5.05;61.77
17505;BME280;8870;50.950;11.762;2023-04-04T16:30:18;99183.34;;;6.00;65.93
17505;BME280;8870;50.950;11.762;2023-04-04T16:35:49;99173.56;;;6.84;66.04
17505;BME280;8870;50.950;11.762;2023-04-04T16:41:09;99164.47;;;7.20;62.45
17505;BME280;8870;50.950;11.762;2023-04-04T16:46:43;99159.00;;;7.33;58.27
17505;BME280;8870;50.950;11.762;2023-04-04T16:52:15;99167.28;;;7.42;60.37
17505;BME280;8870;50.950;11.762;2023-04-04T16:57:35;99166.31;;;7.43;59.47
17505;BME280;8870;50.950;11.762;2023-04-04T17:03:10;99163.25;;;7.36;58.71
17505;BME280;8870;50.950;11.762;2023-04-04T17:08:28;99163.25;;;6.90;63.29
17505;BME280;8870;50.950;11.762;2023-04-04T17:14:01;99165.16;;;6.41;61.37
17505;BME280;8870;50.950;11.762;2023-04-04T17:19:22;99164.81;;;6.10;63.11
17505;BME280;8870;50.950;11.762;2023-04-04T17:24:55;99162.81;;;6.01;61.77
17505;BME280;8870;50.950;11.762;2023-04-04T17:30:21;99159.13;;;5.78;63.15
17505;BME280;8870;50.950;11.762;2023-04-04T17:35:54;99159.94;;;5.54;62.60
17505;BME280;8870;50.950;11.762;2023-04-04T17:41:14;99151.16;;;5.15;63.29
17505;BME280;8870;50.950;11.762;2023-04-04T17:46:45;99154.59;;;4.78;60.34
17505;BME280;8870;50.950;11.762;2023-04-04T17:52:13;99150.28;;;4.37;59.88
17505;BME280;8870;50.950;11.762;2023-04-04T17:57:44;99157.25;;;4.12;63.29
17505;BME280;8870;50.950;11.762;2023-04-04T18:03:03;99156.03;;;3.90;66.47
17505;BME280;8870;50.950;11.762;2023-04-04T18:08:38;99162.19;;;3.63;65.84
17505;BME280;8870;50.950;11.762;2023-04-04T18:13:56;99155.09;;;3.35;69.27
17505;BME280;8870;50.950;11.762;2023-04-04T18:19:27;99168.63;;;3.03;76.74
17505;BME280;8870;50.950;11.762;2023-04-04T18:24:49;99164.25;;;2.87;87.15
17505;BME280;8870;50.950;11.762;2023-04-04T18:30:22;99161.06;;;2.66;85.91
17505;BME280;8870;50.950;11.762;2023-04-04T18:35:41;99161.81;;;2.54;90.82
17505;BME280;8870;50.950;11.762;2023-04-04T18:41:14;99162.38;;;2.44;91.46
17505;BME280;8870;50.950;11.762;2023-04-04T18:46:33;99161.88;;;2.38;94.09
17505;BME280;8870;50.950;11.762;2023-04-04T18:52:04;99170.28;;;2.30;92.84
17505;BME280;8870;50.950;11.762;2023-04-04T18:57:38;99170.84;;;2.21;90.71
17505;BME280;8870;50.950;11.762;2023-04-04T19:02:58;99172.72;;;2.19;94.92
17505;BME280;8870;50.950;11.762;2023-04-04T19:08:32;99169.34;;;2.17;93.31
17505;BME280;8870;50.950;11.762;2023-04-04T19:13:53;99167.97;;;2.09;96.34
17505;BME280;8870;50.950;11.762;2023-04-04T19:19:25;99164.91;;;2.01;98.72
17505;BME280;8870;50.950;11.762;2023-04-04T19:24:57;99173.97;;;1.97;100.00
17505;BME280;8870;50.950;11.762;2023-04-04T19:30:39;99163.53;;;1.94;100.00
17505;BME280;8870;50.950;11.762;2023-04-04T19:36:14;99156.78;;;1.88;100.00
17505;BME280;8870;50.950;11.762;2023-04-04T19:41:33;99156.50;;;1.77;100.00
17505;BME280;8870;50.950;11.762;2023-04-04T19:47:08;99162.25;;;1.53;100.00
17505;BME280;8870;50.950;11.762;2023-04-04T19:52:27;99164.34;;;1.32;100.00
17505;BME280;8870;50.950;11.762;2023-04-04T19:57:57;99165.78;;;1.21;100.00
17505;BME280;8870;50.950;11.762;2023-04-04T20:03:29;99169.69;;;1.14;100.00
17505;BME280;8870;50.950;11.762;2023-04-04T20:09:02;99161.38;;;1.04;100.00
17505;BME280;8870;50.950;11.762;2023-04-04T20:14:24;99170.69;;;0.96;100.00
17505;BME280;8870;50.950;11.762;2023-04-04T20:19:57;99167.75;;;0.84;100.00
17505;BME280;8870;50.950;11.762;2023-04-04T20:25:39;99157.44;;;0.78;100.00
17505;BME280;8870;50.950;11.762;2023-04-04T20:31:00;99161.22;;;0.74;100.00
17505;BME280;8870;50.950;11.762;2023-04-04T20:36:38;99165.91;;;0.69;100.00
17505;BME280;8870;50.950;11.762;2023-04-04T20:41:58;99166.28;;;0.61;100.00
17505;BME280;8870;50.950;11.762;2023-04-04T20:47:39;99175.19;;;0.60;100.00
17505;BME280;8870;50.950;11.762;2023-04-04T20:53:01;99175.41;;;0.55;100.00
17505;BME280;8870;50.950;11.762;2023-04-04T20:58:33;99172.16;;;0.50;100.00
17505;BME280;8870;50.950;11.762;2023-04-04T21:03:51;99176.97;;;0.42;100.00
17505;BME280;8870;50.950;11.762;2023-04-04T21:09:25;99170.84;;;0.41;100.00
17505;BME280;8870;50.950;11.762;2023-04-04T21:14:44;99176.22;;;0.40;100.00
17505;BME280;8870;50.950;11.762;2023-04-04T21:26:33;99171.38;;;0.30;100.00
17505;BME280;8870;50.950;11.762;2023-04-04T21:31:58;99170.91;;;0.22;100.00
17505;BME280;8870;50.950;11.762;2023-04-04T21:37:31;99170.44;;;0.14;100.00
17505;BME280;8870;50.950;11.762;2023-04-04T21:42:52;99166.47;;;0.05;100.00
17505;BME280;8870;50.950;11.762;2023-04-04T21:48:23;99160.59;;;-0.02;100.00
17505;BME280;8870;50.950;11.762;2023-04-04T21:53:42;99161.69;;;-0.06;100.00
17505;BME280;8870;50.950;11.762;2023-04-04T21:59:16;99156.59;;;-0.10;100.00
17505;BME280;8870;50.950;11.762;2023-04-04T22:04:36;99161.44;;;-0.19;100.00
17505;BME280;8870;50.950;11.762;2023-04-04T22:10:08;99161.56;;;-0.22;100.00
17505;BME280;8870;50.950;11.762;2023-04-04T22:15:29;99154.78;;;-0.27;100.00
17505;BME280;8870;50.950;11.762;2023-04-04T22:21:04;99149.66;;;-0.30;100.00
17505;BME280;8870;50.950;11.762;2023-04-04T22:26:22;99149.94;;;-0.37;100.00
17505;BME280;8870;50.950;11.762;2023-04-04T22:31:56;99142.44;;;-0.46;100.00
17505;BME280;8870;50.950;11.762;2023-04-04T22:37:17;99134.66;;;-0.49;100.00
17505;BME280;8870;50.950;11.762;2023-04-04T22:42:49;99126.00;;;-0.53;100.00
17505;BME280;8870;50.950;11.762;2023-04-04T22:48:10;99134.09;;;-0.56;100.00
17505;BME280;8870;50.950;11.762;2023-04-04T22:53:44;99135.09;;;-0.58;100.00
17505;BME280;8870;50.950;11.762;2023-04-04T22:59:02;99127.28;;;-0.62;100.00
17505;BME280;8870;50.950;11.762;2023-04-04T23:04:36;99108.91;;;-0.65;100.00
17505;BME280;8870;50.950;11.762;2023-04-04T23:09:55;99111.63;;;-0.66;100.00
17505;BME280;8870;50.950;11.762;2023-04-04T23:15:26;99121.59;;;-0.71;100.00
17505;BME280;8870;50.950;11.762;2023-04-04T23:20:49;99113.00;;;-0.76;100.00
17505;BME280;8870;50.950;11.762;2023-04-04T23:26:21;99113.31;;;-0.83;100.00
17505;BME280;8870;50.950;11.762;2023-04-04T23:31:40;99103.72;;;-0.85;100.00
17505;BME280;8870;50.950;11.762;2023-04-04T23:37:13;99109.16;;;-0.88;100.00
17505;BME280;8870;50.950;11.762;2023-04-04T23:42:32;99103.34;;;-0.97;100.00
17505;BME280;8870;50.950;11.762;2023-04-04T23:48:05;99102.88;;;-1.05;100.00
17505;BME280;8870;50.950;11.762;2023-04-04T23:59:30;99096.44;;;-1.18;100.00
